createdAt,value
2017-06-10T00:00:28.261Z,0
2017-06-10T00:01:28.489Z,0
2017-06-10T00:02:27.681Z,0
2017-06-10T00:03:27.711Z,0
2017-06-10T00:04:28.055Z,0
2017-06-10T00:05:28.089Z,0
2017-06-10T00:06:28.366Z,0
2017-06-10T00:07:28.449Z,0
2017-06-10T00:08:28.475Z,0
2017-06-10T00:09:28.521Z,0
2017-06-10T00:10:28.221Z,0
2017-06-10T00:11:28.510Z,0
2017-06-10T00:12:28.599Z,0
2017-06-10T00:13:28.616Z,0
2017-06-10T00:14:28.646Z,0
2017-06-10T00:15:28.680Z,0
2017-06-10T00:16:28.597Z,0
2017-06-10T00:17:28.735Z,0
2017-06-10T00:18:28.759Z,0
2017-06-10T00:19:28.164Z,0
2017-06-10T00:20:28.504Z,0
2017-06-10T00:21:29.045Z,0
2017-06-10T00:22:28.559Z,0
2017-06-10T00:23:28.902Z,0
2017-06-10T00:24:28.619Z,0
2017-06-10T00:25:28.634Z,0
2017-06-10T00:26:29.225Z,0
2017-06-10T00:27:28.695Z,0
2017-06-10T00:28:28.438Z,0
2017-06-10T00:29:29.069Z,0
2017-06-10T00:30:29.096Z,0
2017-06-10T00:31:29.005Z,0
2017-06-10T00:32:28.828Z,0
2017-06-10T00:33:29.178Z,0
2017-06-10T00:34:29.210Z,0
2017-06-10T00:35:28.914Z,0
2017-06-10T00:36:29.520Z,0
2017-06-10T00:37:29.286Z,0
2017-06-10T00:38:28.689Z,0
2017-06-10T00:39:29.034Z,0
2017-06-10T00:40:29.058Z,0
2017-06-10T00:41:28.969Z,0
2017-06-10T00:42:29.426Z,0
2017-06-10T00:43:29.451Z,0
2017-06-10T00:44:29.171Z,0
2017-06-10T00:45:29.512Z,0
2017-06-10T00:46:29.737Z,0
2017-06-10T00:47:29.240Z,0
2017-06-10T00:48:29.286Z,0
2017-06-10T00:49:28.990Z,0
2017-06-10T00:50:29.652Z,0
2017-06-10T00:51:29.564Z,0
2017-06-10T00:52:29.387Z,0
2017-06-10T00:53:29.738Z,0
2017-06-10T00:54:29.451Z,0
2017-06-10T00:55:29.805Z,0
2017-06-10T00:56:30.013Z,0
2017-06-10T00:57:29.525Z,0
2017-06-10T00:58:29.558Z,0
2017-06-10T00:59:29.588Z,0
2017-06-10T01:00:29.926Z,0
2017-06-10T01:01:30.236Z,0
2017-06-10T01:02:29.669Z,0
2017-06-10T01:03:30.014Z,0
2017-06-10T01:04:30.050Z,0
2017-06-10T01:05:30.067Z,0
2017-06-10T01:06:30.038Z,0
2017-06-10T01:07:30.112Z,0
2017-06-10T01:08:30.143Z,0
2017-06-10T01:09:30.178Z,0
2017-06-10T01:10:30.203Z,0
2017-06-10T01:11:30.488Z,0
2017-06-10T01:12:29.941Z,0
2017-06-10T01:13:29.983Z,0
2017-06-10T01:14:30.007Z,0
2017-06-10T01:15:30.035Z,0
2017-06-10T01:16:30.261Z,0
2017-06-10T01:17:30.387Z,0
2017-06-10T01:18:30.427Z,0
2017-06-10T01:19:30.457Z,0
2017-06-10T01:20:30.170Z,0
2017-06-10T01:21:30.708Z,0
2017-06-10T01:22:30.529Z,0
2017-06-10T01:23:29.942Z,0
2017-06-10T01:24:30.591Z,0
2017-06-10T01:25:29.996Z,0
2017-06-10T01:26:30.531Z,0
2017-06-10T01:27:30.355Z,0
2017-06-10T01:28:30.386Z,0
2017-06-10T01:29:30.425Z,0
2017-06-10T01:30:30.446Z,0
2017-06-10T01:31:30.675Z,0
2017-06-10T01:32:30.179Z,0
2017-06-10T01:33:30.533Z,0
2017-06-10T01:34:30.239Z,0
2017-06-10T01:35:30.895Z,0
2017-06-10T01:36:31.126Z,0
2017-06-10T01:37:30.956Z,0
2017-06-10T01:38:30.981Z,0
2017-06-10T01:39:31.011Z,0
2017-06-10T01:40:31.039Z,0
2017-06-10T01:41:31.000Z,0
2017-06-10T01:42:30.776Z,0
2017-06-10T01:43:30.809Z,0
2017-06-10T01:44:31.151Z,0
2017-06-10T01:45:31.171Z,0
2017-06-10T01:46:30.512Z,0
2017-06-10T01:47:30.912Z,0
2017-06-10T01:48:31.272Z,0
2017-06-10T01:49:31.282Z,0
2017-06-10T01:50:30.998Z,0
2017-06-10T01:51:31.228Z,0
2017-06-10T01:52:31.369Z,0
2017-06-10T01:53:31.077Z,0
2017-06-10T01:54:31.430Z,0
2017-06-10T01:55:30.831Z,0
2017-06-10T01:56:31.735Z,0
2017-06-10T01:57:31.188Z,0
2017-06-10T01:58:30.901Z,0
2017-06-10T01:59:31.562Z,0
2017-06-10T02:00:31.279Z,0
2017-06-10T02:01:31.812Z,0
2017-06-10T02:02:31.641Z,0
2017-06-10T02:03:31.363Z,0
2017-06-10T02:04:31.693Z,0
2017-06-10T02:05:31.727Z,0
2017-06-10T02:06:31.965Z,0
2017-06-10T02:07:31.781Z,0
2017-06-10T02:08:31.488Z,0
2017-06-10T02:09:31.527Z,0
2017-06-10T02:10:31.542Z,0
2017-06-10T02:11:32.094Z,0
2017-06-10T02:12:31.913Z,0
2017-06-10T02:13:31.953Z,0
2017-06-10T02:14:31.657Z,0
2017-06-10T02:15:31.686Z,0
2017-06-10T02:16:31.920Z,0
2017-06-10T02:17:31.432Z,0
2017-06-10T02:18:32.084Z,0
2017-06-10T02:19:31.486Z,0
2017-06-10T02:20:32.142Z,0
2017-06-10T02:21:31.798Z,0
2017-06-10T02:22:32.189Z,0
2017-06-10T02:23:32.229Z,0
2017-06-10T02:24:31.937Z,0
2017-06-10T02:25:31.662Z,0
2017-06-10T02:26:32.187Z,0
2017-06-10T02:27:32.331Z,0
2017-06-10T02:28:32.372Z,0
2017-06-10T02:29:32.076Z,0
2017-06-10T02:30:32.110Z,0
2017-06-10T02:31:32.382Z,0
2017-06-10T02:32:32.160Z,0
2017-06-10T02:33:32.192Z,0
2017-06-10T02:34:32.236Z,0
2017-06-10T02:35:32.557Z,0
2017-06-10T02:36:32.789Z,0
2017-06-10T02:37:32.296Z,0
2017-06-10T02:38:32.323Z,0
2017-06-10T02:39:32.354Z,0
2017-06-10T02:40:32.072Z,0
2017-06-10T02:41:32.099Z,0
2017-06-10T02:42:32.743Z,0
2017-06-10T02:43:32.468Z,0
2017-06-10T02:44:32.485Z,0
2017-06-10T02:45:32.205Z,0
2017-06-10T02:46:32.862Z,0
2017-06-10T02:47:32.567Z,0
2017-06-10T02:48:32.908Z,0
2017-06-10T02:49:32.972Z,0
2017-06-10T02:50:32.966Z,0
2017-06-10T02:51:32.682Z,0
2017-06-10T02:52:32.958Z,0
2017-06-10T02:53:33.054Z,0
2017-06-10T02:54:33.084Z,0
2017-06-10T02:55:32.793Z,0
2017-06-10T02:56:33.129Z,0
2017-06-10T02:57:33.099Z,0
2017-06-10T02:58:32.560Z,0
2017-06-10T02:59:33.220Z,4
2017-06-10T03:00:33.237Z,4
2017-06-10T03:01:33.274Z,4
2017-06-10T03:02:33.239Z,0
2017-06-10T03:03:33.331Z,4
2017-06-10T03:04:33.072Z,4
2017-06-10T03:05:33.070Z,4
2017-06-10T03:06:33.094Z,4
2017-06-10T03:07:33.392Z,4
2017-06-10T03:08:33.147Z,8
2017-06-10T03:09:33.177Z,8
2017-06-10T03:10:33.521Z,8
2017-06-10T03:11:33.546Z,8
2017-06-10T03:12:33.511Z,12
2017-06-10T03:13:33.602Z,12
2017-06-10T03:14:33.627Z,16
2017-06-10T03:15:33.345Z,16
2017-06-10T03:16:33.682Z,16
2017-06-10T03:17:33.962Z,20
2017-06-10T03:18:33.735Z,20
2017-06-10T03:19:33.455Z,24
2017-06-10T03:20:33.518Z,24
2017-06-10T03:21:33.511Z,24
2017-06-10T03:22:33.782Z,28
2017-06-10T03:23:33.875Z,32
2017-06-10T03:24:33.592Z,36
2017-06-10T03:25:33.925Z,40
2017-06-10T03:26:33.989Z,40
2017-06-10T03:27:34.182Z,44
2017-06-10T03:28:34.003Z,48
2017-06-10T03:29:33.748Z,52
2017-06-10T03:30:34.069Z,56
2017-06-10T03:31:34.098Z,60
2017-06-10T03:32:34.371Z,64
2017-06-10T03:33:34.153Z,68
2017-06-10T03:34:34.177Z,76
2017-06-10T03:35:34.210Z,80
2017-06-10T03:36:34.229Z,84
2017-06-10T03:37:34.510Z,92
2017-06-10T03:38:34.283Z,96
2017-06-10T03:39:34.303Z,104
2017-06-10T03:40:34.352Z,108
2017-06-10T03:41:34.065Z,108
2017-06-10T03:42:34.331Z,120
2017-06-10T03:43:34.418Z,124
2017-06-10T03:44:34.451Z,128
2017-06-10T03:45:34.481Z,136
2017-06-10T03:46:34.504Z,140
2017-06-10T03:47:34.162Z,148
2017-06-10T03:48:34.547Z,148
2017-06-10T03:49:34.584Z,152
2017-06-10T03:50:33.996Z,156
2017-06-10T03:51:34.641Z,164
2017-06-10T03:52:34.913Z,172
2017-06-10T03:53:34.382Z,176
2017-06-10T03:54:34.722Z,180
2017-06-10T03:55:34.432Z,188
2017-06-10T03:56:34.149Z,192
2017-06-10T03:57:35.001Z,196
2017-06-10T03:58:34.830Z,200
2017-06-10T03:59:34.552Z,208
2017-06-10T04:00:34.887Z,212
2017-06-10T04:01:34.914Z,216
2017-06-10T04:02:35.193Z,224
2017-06-10T04:03:34.970Z,228
2017-06-10T04:04:35.000Z,232
2017-06-10T04:05:35.028Z,236
2017-06-10T04:06:34.740Z,240
2017-06-10T04:07:35.353Z,244
2017-06-10T04:08:34.789Z,248
2017-06-10T04:09:35.136Z,252
2017-06-10T04:10:35.158Z,256
2017-06-10T04:11:34.881Z,264
2017-06-10T04:12:35.110Z,264
2017-06-10T04:13:35.243Z,268
2017-06-10T04:14:35.271Z,272
2017-06-10T04:15:34.984Z,276
2017-06-10T04:16:35.018Z,280
2017-06-10T04:17:34.918Z,288
2017-06-10T04:18:35.393Z,292
2017-06-10T04:19:35.088Z,296
2017-06-10T04:20:35.443Z,304
2017-06-10T04:21:35.463Z,308
2017-06-10T04:22:35.746Z,312
2017-06-10T04:23:35.518Z,316
2017-06-10T04:24:35.542Z,320
2017-06-10T04:25:35.257Z,324
2017-06-10T04:26:35.612Z,328
2017-06-10T04:27:35.513Z,332
2017-06-10T04:28:35.342Z,336
2017-06-10T04:29:35.680Z,340
2017-06-10T04:30:35.704Z,344
2017-06-10T04:31:35.417Z,348
2017-06-10T04:32:35.655Z,352
2017-06-10T04:33:35.478Z,356
2017-06-10T04:34:35.820Z,364
2017-06-10T04:35:35.848Z,368
2017-06-10T04:36:35.868Z,368
2017-06-10T04:37:35.833Z,376
2017-06-10T04:38:35.618Z,380
2017-06-10T04:39:35.643Z,384
2017-06-10T04:40:35.985Z,384
2017-06-10T04:41:36.009Z,388
2017-06-10T04:42:35.969Z,392
2017-06-10T04:43:36.065Z,396
2017-06-10T04:44:35.790Z,400
2017-06-10T04:45:36.111Z,404
2017-06-10T04:46:35.837Z,404
2017-06-10T04:47:36.377Z,408
2017-06-10T04:48:36.210Z,412
2017-06-10T04:49:36.226Z,416
2017-06-10T04:50:36.251Z,420
2017-06-10T04:51:35.970Z,424
2017-06-10T04:52:35.688Z,428
2017-06-10T04:53:36.337Z,428
2017-06-10T04:54:36.050Z,436
2017-06-10T04:55:36.391Z,440
2017-06-10T04:56:36.417Z,440
2017-06-10T04:57:36.137Z,444
2017-06-10T04:58:35.850Z,452
2017-06-10T04:59:36.491Z,456
2017-06-10T05:00:36.536Z,456
2017-06-10T05:01:36.252Z,460
2017-06-10T05:02:36.269Z,464
2017-06-10T05:03:36.293Z,468
2017-06-10T05:04:36.317Z,468
2017-06-10T05:05:36.656Z,472
2017-06-10T05:06:36.380Z,476
2017-06-10T05:07:36.722Z,480
2017-06-10T05:08:36.437Z,484
2017-06-10T05:09:36.147Z,484
2017-06-10T05:10:36.487Z,492
2017-06-10T05:11:36.832Z,492
2017-06-10T05:12:36.850Z,496
2017-06-10T05:13:36.261Z,500
2017-06-10T05:14:36.907Z,504
2017-06-10T05:15:36.627Z,508
2017-06-10T05:16:36.969Z,512
2017-06-10T05:17:37.001Z,512
2017-06-10T05:18:37.213Z,512
2017-06-10T05:19:37.047Z,516
2017-06-10T05:20:36.451Z,524
2017-06-10T05:21:36.803Z,528
2017-06-10T05:22:36.821Z,536
2017-06-10T05:23:37.044Z,548
2017-06-10T05:24:37.179Z,560
2017-06-10T05:25:37.204Z,560
2017-06-10T05:26:37.307Z,552
2017-06-10T05:27:37.264Z,548
2017-06-10T05:28:37.144Z,548
2017-06-10T05:29:37.321Z,552
2017-06-10T05:30:37.330Z,556
2017-06-10T05:31:37.381Z,552
2017-06-10T05:32:37.408Z,556
2017-06-10T05:33:37.317Z,556
2017-06-10T05:34:37.145Z,564
2017-06-10T05:35:37.487Z,564
2017-06-10T05:36:37.199Z,568
2017-06-10T05:37:37.233Z,572
2017-06-10T05:38:37.453Z,576
2017-06-10T05:39:37.592Z,580
2017-06-10T05:40:37.310Z,580
2017-06-10T05:41:37.340Z,580
2017-06-10T05:42:37.676Z,584
2017-06-10T05:43:37.857Z,588
2017-06-10T05:44:37.729Z,588
2017-06-10T05:45:37.742Z,592
2017-06-10T05:46:37.788Z,596
2017-06-10T05:47:37.494Z,600
2017-06-10T05:48:37.664Z,600
2017-06-10T05:49:37.874Z,604
2017-06-10T05:50:37.927Z,604
2017-06-10T05:51:37.286Z,608
2017-06-10T05:52:37.931Z,616
2017-06-10T05:53:37.957Z,616
2017-06-10T05:54:37.067Z,624
2017-06-10T05:55:38.061Z,632
2017-06-10T05:56:37.427Z,640
2017-06-10T05:57:38.088Z,656
2017-06-10T05:58:38.317Z,672
2017-06-10T05:59:38.145Z,696
2017-06-10T06:00:37.891Z,724
2017-06-10T06:01:37.883Z,760
2017-06-10T06:02:38.232Z,796
2017-06-10T06:03:38.093Z,856
2017-06-10T06:04:38.282Z,928
2017-06-10T06:05:37.996Z,992
2017-06-10T06:06:38.052Z,1044
2017-06-10T06:07:38.353Z,1084
2017-06-10T06:08:38.225Z,1112
2017-06-10T06:09:38.422Z,1108
2017-06-10T06:10:38.438Z,1072
2017-06-10T06:11:38.165Z,1000
2017-06-10T06:12:38.199Z,912
2017-06-10T06:13:38.356Z,828
2017-06-10T06:14:38.550Z,772
2017-06-10T06:15:38.266Z,732
2017-06-10T06:16:38.300Z,712
2017-06-10T06:17:38.626Z,692
2017-06-10T06:18:38.809Z,684
2017-06-10T06:19:38.379Z,672
2017-06-10T06:20:38.714Z,672
2017-06-10T06:21:38.751Z,672
2017-06-10T06:22:38.772Z,676
2017-06-10T06:23:38.637Z,676
2017-06-10T06:24:38.226Z,676
2017-06-10T06:25:38.850Z,684
2017-06-10T06:26:38.887Z,684
2017-06-10T06:27:38.918Z,688
2017-06-10T06:28:39.088Z,692
2017-06-10T06:29:38.649Z,700
2017-06-10T06:30:38.994Z,704
2017-06-10T06:31:38.706Z,712
2017-06-10T06:32:39.082Z,720
2017-06-10T06:33:38.911Z,736
2017-06-10T06:34:38.796Z,752
2017-06-10T06:35:38.818Z,772
2017-06-10T06:36:38.854Z,792
2017-06-10T06:37:39.195Z,808
2017-06-10T06:38:39.366Z,820
2017-06-10T06:39:39.241Z,828
2017-06-10T06:40:38.950Z,808
2017-06-10T06:41:38.982Z,768
2017-06-10T06:42:39.327Z,736
2017-06-10T06:43:39.515Z,708
2017-06-10T06:44:38.756Z,692
2017-06-10T06:45:39.097Z,680
2017-06-10T06:46:39.438Z,676
2017-06-10T06:47:39.470Z,672
2017-06-10T06:48:39.323Z,672
2017-06-10T06:49:39.208Z,668
2017-06-10T06:50:38.921Z,664
2017-06-10T06:51:39.261Z,664
2017-06-10T06:52:39.616Z,664
2017-06-10T06:53:39.776Z,664
2017-06-10T06:54:39.337Z,660
2017-06-10T06:55:39.364Z,664
2017-06-10T06:56:39.702Z,668
2017-06-10T06:57:39.757Z,668
2017-06-10T06:58:39.964Z,668
2017-06-10T06:59:39.800Z,672
2017-06-10T07:00:39.862Z,668
2017-06-10T07:01:39.841Z,668
2017-06-10T07:02:39.879Z,672
2017-06-10T07:03:39.795Z,672
2017-06-10T07:04:39.312Z,676
2017-06-10T07:05:39.653Z,680
2017-06-10T07:06:39.669Z,680
2017-06-10T07:07:40.019Z,676
2017-06-10T07:08:39.925Z,680
2017-06-10T07:09:40.064Z,676
2017-06-10T07:10:39.791Z,680
2017-06-10T07:11:40.141Z,680
2017-06-10T07:12:39.825Z,680
2017-06-10T07:13:40.066Z,680
2017-06-10T07:14:39.888Z,680
2017-06-10T07:15:39.908Z,680
2017-06-10T07:16:39.946Z,684
2017-06-10T07:17:39.971Z,688
2017-06-10T07:18:40.466Z,692
2017-06-10T07:19:40.023Z,692
2017-06-10T07:20:40.405Z,692
2017-06-10T07:21:40.390Z,696
2017-06-10T07:22:40.457Z,696
2017-06-10T07:23:40.139Z,700
2017-06-10T07:24:40.483Z,700
2017-06-10T07:25:40.191Z,700
2017-06-10T07:26:40.543Z,700
2017-06-10T07:27:39.940Z,700
2017-06-10T07:28:40.595Z,700
2017-06-10T07:29:40.312Z,700
2017-06-10T07:30:40.649Z,700
2017-06-10T07:31:40.682Z,700
2017-06-10T07:32:40.390Z,704
2017-06-10T07:33:40.422Z,704
2017-06-10T07:34:40.454Z,708
2017-06-10T07:35:40.785Z,712
2017-06-10T07:36:40.805Z,716
2017-06-10T07:37:40.851Z,716
2017-06-10T07:38:40.871Z,716
2017-06-10T07:39:40.271Z,716
2017-06-10T07:40:40.613Z,720
2017-06-10T07:41:40.957Z,728
2017-06-10T07:42:40.671Z,728
2017-06-10T07:43:40.696Z,732
2017-06-10T07:44:40.563Z,736
2017-06-10T07:45:41.062Z,740
2017-06-10T07:46:40.782Z,740
2017-06-10T07:47:40.806Z,736
2017-06-10T07:48:41.150Z,732
2017-06-10T07:49:41.024Z,732
2017-06-10T07:50:40.883Z,732
2017-06-10T07:51:41.222Z,732
2017-06-10T07:52:40.949Z,736
2017-06-10T07:53:41.287Z,740
2017-06-10T07:54:41.155Z,740
2017-06-10T07:55:41.024Z,744
2017-06-10T07:56:41.060Z,748
2017-06-10T07:57:40.774Z,744
2017-06-10T07:58:41.414Z,748
2017-06-10T07:59:41.288Z,748
2017-06-10T08:00:41.166Z,748
2017-06-10T08:01:41.505Z,748
2017-06-10T08:02:41.534Z,748
2017-06-10T08:03:41.566Z,752
2017-06-10T08:04:41.566Z,756
2017-06-10T08:05:41.307Z,756
2017-06-10T08:06:41.649Z,756
2017-06-10T08:07:41.398Z,764
2017-06-10T08:08:41.734Z,768
2017-06-10T08:09:41.259Z,776
2017-06-10T08:10:41.757Z,780
2017-06-10T08:11:41.788Z,784
2017-06-10T08:12:41.809Z,784
2017-06-10T08:13:41.838Z,784
2017-06-10T08:14:42.020Z,792
2017-06-10T08:15:41.584Z,796
2017-06-10T08:16:41.930Z,800
2017-06-10T08:17:41.959Z,804
2017-06-10T08:18:41.977Z,808
2017-06-10T08:19:41.531Z,816
2017-06-10T08:20:41.717Z,820
2017-06-10T08:21:42.061Z,824
2017-06-10T08:22:41.466Z,832
2017-06-10T08:23:41.495Z,836
2017-06-10T08:24:42.299Z,840
2017-06-10T08:25:42.173Z,844
2017-06-10T08:26:42.197Z,848
2017-06-10T08:27:41.927Z,844
2017-06-10T08:28:42.262Z,844
2017-06-10T08:29:42.129Z,848
2017-06-10T08:30:41.997Z,852
2017-06-10T08:31:42.017Z,856
2017-06-10T08:32:41.742Z,856
2017-06-10T08:33:42.390Z,864
2017-06-10T08:34:42.307Z,868
2017-06-10T08:35:42.441Z,876
2017-06-10T08:36:42.485Z,884
2017-06-10T08:37:42.510Z,892
2017-06-10T08:38:42.215Z,900
2017-06-10T08:39:42.507Z,908
2017-06-10T08:40:42.588Z,912
2017-06-10T08:41:42.304Z,916
2017-06-10T08:42:42.650Z,928
2017-06-10T08:43:42.674Z,936
2017-06-10T08:44:42.909Z,940
2017-06-10T08:45:42.406Z,944
2017-06-10T08:46:42.757Z,952
2017-06-10T08:47:42.473Z,952
2017-06-10T08:48:42.189Z,956
2017-06-10T08:49:42.997Z,960
2017-06-10T08:50:42.868Z,968
2017-06-10T08:51:42.583Z,972
2017-06-10T08:52:42.921Z,972
2017-06-10T08:53:42.634Z,980
2017-06-10T08:54:43.175Z,984
2017-06-10T08:55:43.006Z,992
2017-06-10T08:56:43.052Z,996
2017-06-10T08:57:42.753Z,1004
2017-06-10T08:58:43.088Z,1008
2017-06-10T08:59:43.003Z,1008
2017-06-10T09:00:43.136Z,1012
2017-06-10T09:01:43.186Z,1016
2017-06-10T09:02:43.211Z,1016
2017-06-10T09:03:43.230Z,1020
2017-06-10T09:04:43.459Z,1020
2017-06-10T09:05:42.978Z,984
2017-06-10T09:06:42.996Z,996
2017-06-10T09:07:43.338Z,1004
2017-06-10T09:08:43.073Z,1044
2017-06-10T09:09:42.916Z,1048
2017-06-10T09:10:43.128Z,1060
2017-06-10T09:11:43.453Z,1068
2017-06-10T09:12:43.482Z,1076
2017-06-10T09:13:43.199Z,1088
2017-06-10T09:14:43.685Z,1096
2017-06-10T09:15:43.253Z,1116
2017-06-10T09:16:43.276Z,1136
2017-06-10T09:17:43.625Z,1140
2017-06-10T09:18:43.646Z,1144
2017-06-10T09:19:43.826Z,1144
2017-06-10T09:20:43.703Z,1160
2017-06-10T09:21:43.404Z,1160
2017-06-10T09:22:43.759Z,1156
2017-06-10T09:23:43.790Z,1160
2017-06-10T09:24:43.646Z,1172
2017-06-10T09:25:43.847Z,1184
2017-06-10T09:26:43.557Z,1192
2017-06-10T09:27:43.589Z,1216
2017-06-10T09:28:43.605Z,1268
2017-06-10T09:29:44.102Z,1328
2017-06-10T09:30:43.675Z,1372
2017-06-10T09:31:43.699Z,1388
2017-06-10T09:32:43.421Z,1412
2017-06-10T09:33:44.070Z,1504
2017-06-10T09:34:43.672Z,1620
2017-06-10T09:35:43.807Z,1752
2017-06-10T09:36:44.152Z,1804
2017-06-10T09:37:43.564Z,1776
2017-06-10T09:38:43.894Z,1708
2017-06-10T09:39:44.438Z,1620
2017-06-10T09:40:44.263Z,1576
2017-06-10T09:41:44.294Z,1612
2017-06-10T09:42:44.325Z,1616
2017-06-10T09:43:44.357Z,1612
2017-06-10T09:44:44.527Z,1636
2017-06-10T09:45:43.779Z,1744
2017-06-10T09:46:44.113Z,1784
2017-06-10T09:47:43.529Z,1868
2017-06-10T09:48:43.870Z,2180
2017-06-10T09:49:44.210Z,2252
2017-06-10T09:50:44.556Z,2208
2017-06-10T09:51:43.955Z,2192
2017-06-10T09:52:44.302Z,2200
2017-06-10T09:53:44.309Z,2172
2017-06-10T09:54:44.340Z,2152
2017-06-10T09:55:44.718Z,2064
2017-06-10T09:56:44.105Z,1956
2017-06-10T09:57:44.432Z,1868
2017-06-10T09:58:44.153Z,1812
2017-06-10T09:59:44.800Z,2020
2017-06-10T10:00:44.203Z,2188
2017-06-10T10:01:44.858Z,2272
2017-06-10T10:02:44.600Z,2352
2017-06-10T10:03:44.286Z,2428
2017-06-10T10:04:44.629Z,2356
2017-06-10T10:05:44.971Z,2312
2017-06-10T10:06:44.383Z,2196
2017-06-10T10:07:44.408Z,2028
2017-06-10T10:08:44.741Z,1940
2017-06-10T10:09:44.453Z,1908
2017-06-10T10:10:44.802Z,1924
2017-06-10T10:11:45.147Z,1884
2017-06-10T10:12:44.544Z,1948
2017-06-10T10:13:45.201Z,1996
2017-06-10T10:14:44.917Z,2160
2017-06-10T10:15:44.941Z,2284
2017-06-10T10:16:44.967Z,2416
2017-06-10T10:17:44.999Z,2440
2017-06-10T10:18:45.333Z,2372
2017-06-10T10:19:45.362Z,2400
2017-06-10T10:20:45.089Z,2424
2017-06-10T10:21:45.110Z,2448
2017-06-10T10:22:45.461Z,2480
2017-06-10T10:23:45.190Z,2424
2017-06-10T10:24:44.888Z,2404
2017-06-10T10:25:45.073Z,2488
2017-06-10T10:26:45.251Z,2716
2017-06-10T10:27:45.608Z,2320
2017-06-10T10:28:45.627Z,2312
2017-06-10T10:29:45.651Z,2396
2017-06-10T10:30:45.526Z,2012
2017-06-10T10:31:45.707Z,2204
2017-06-10T10:32:45.423Z,2352
2017-06-10T10:33:45.452Z,2136
2017-06-10T10:34:45.797Z,2064
2017-06-10T10:35:45.706Z,2076
2017-06-10T10:36:45.550Z,2136
2017-06-10T10:37:45.877Z,2340
2017-06-10T10:38:45.909Z,2748
2017-06-10T10:39:45.625Z,2668
2017-06-10T10:40:46.166Z,2548
2017-06-10T10:41:45.990Z,2840
2017-06-10T10:42:45.710Z,3032
2017-06-10T10:43:45.744Z,3036
2017-06-10T10:44:46.086Z,2752
2017-06-10T10:45:46.329Z,2584
2017-06-10T10:46:45.818Z,2308
2017-06-10T10:47:45.543Z,2284
2017-06-10T10:48:46.191Z,2332
2017-06-10T10:49:46.224Z,2232
2017-06-10T10:50:46.189Z,2292
2017-06-10T10:51:46.278Z,2504
2017-06-10T10:52:45.994Z,2504
2017-06-10T10:53:46.028Z,2592
2017-06-10T10:54:46.362Z,2612
2017-06-10T10:55:46.590Z,2508
2017-06-10T10:56:46.427Z,2576
2017-06-10T10:57:46.448Z,2608
2017-06-10T10:58:46.164Z,2580
2017-06-10T10:59:46.511Z,2564
2017-06-10T11:00:46.365Z,2584
2017-06-10T11:01:46.248Z,2544
2017-06-10T11:02:46.287Z,2516
2017-06-10T11:03:46.628Z,2504
2017-06-10T11:04:46.653Z,2528
2017-06-10T11:05:46.514Z,2628
2017-06-10T11:06:46.707Z,2868
2017-06-10T11:07:46.743Z,3024
2017-06-10T11:08:46.764Z,2808
2017-06-10T11:09:46.797Z,2936
2017-06-10T11:10:46.666Z,2952
2017-06-10T11:11:46.842Z,3272
2017-06-10T11:12:46.570Z,3468
2017-06-10T11:13:46.280Z,3732
2017-06-10T11:14:46.639Z,3916
2017-06-10T11:15:46.805Z,4392
2017-06-10T11:16:46.686Z,4448
2017-06-10T11:17:47.026Z,4380
2017-06-10T11:18:46.432Z,4096
2017-06-10T11:19:47.080Z,3320
2017-06-10T11:20:47.310Z,3460
2017-06-10T11:21:47.132Z,3532
2017-06-10T11:22:46.854Z,3604
2017-06-10T11:23:46.888Z,3612
2017-06-10T11:24:47.220Z,3600
2017-06-10T11:25:47.405Z,3664
2017-06-10T11:26:46.970Z,3776
2017-06-10T11:27:47.310Z,3800
2017-06-10T11:28:46.715Z,3864
2017-06-10T11:29:47.368Z,3996
2017-06-10T11:30:47.253Z,4552
2017-06-10T11:31:47.122Z,5444
2017-06-10T11:32:47.147Z,6472
2017-06-10T11:33:47.487Z,13276
2017-06-10T11:34:46.893Z,24672
2017-06-10T11:35:47.065Z,28096
2017-06-10T11:36:47.575Z,20064
2017-06-10T11:37:47.594Z,26848
2017-06-10T11:38:47.319Z,28160
2017-06-10T11:39:47.346Z,28256
2017-06-10T11:40:47.870Z,27968
2017-06-10T11:41:46.818Z,24800
2017-06-10T11:42:47.422Z,27808
2017-06-10T11:43:47.470Z,29088
2017-06-10T11:44:47.815Z,30272
2017-06-10T11:45:48.089Z,31072
2017-06-10T11:46:47.561Z,31872
2017-06-10T11:47:47.590Z,33696
2017-06-10T11:48:47.616Z,37376
2017-06-10T11:49:47.680Z,40832
2017-06-10T11:50:48.152Z,44480
2017-06-10T11:51:47.397Z,47840
2017-06-10T11:52:47.747Z,50112
2017-06-10T11:53:47.776Z,50528
2017-06-10T11:54:47.821Z,48096
2017-06-10T11:55:48.091Z,44864
2017-06-10T11:56:47.244Z,41280
2017-06-10T11:57:47.899Z,40032
2017-06-10T11:58:47.939Z,41952
2017-06-10T11:59:48.279Z,54176
2017-06-10T12:00:47.844Z,78144
2017-06-10T12:01:48.021Z,95712
2017-06-10T12:02:48.069Z,96576
2017-06-10T12:03:48.406Z,81760
2017-06-10T12:04:48.442Z,75744
2017-06-10T12:05:48.620Z,78688
2017-06-10T12:06:48.197Z,82880
2017-06-10T12:07:48.230Z,86208
2017-06-10T12:08:48.582Z,83072
2017-06-10T12:09:48.299Z,76832
2017-06-10T12:10:48.837Z,68608
2017-06-10T12:11:48.363Z,63328
2017-06-10T12:12:48.704Z,61888
2017-06-10T12:13:48.426Z,65856
2017-06-10T12:14:48.780Z,69824
2017-06-10T12:15:48.645Z,15676
2017-06-10T12:16:48.830Z,64000
2017-06-10T12:17:48.865Z,31968
2017-06-10T12:18:48.592Z,62688
2017-06-10T12:19:48.627Z,14888
2017-06-10T12:20:48.916Z,36160
2017-06-10T12:21:48.697Z,49728
2017-06-10T12:22:48.727Z,60192
2017-06-10T12:23:49.083Z,56544
2017-06-10T12:24:49.107Z,49248
2017-06-10T12:25:49.288Z,42496
2017-06-10T12:26:49.173Z,39616
2017-06-10T12:27:49.211Z,38272
2017-06-10T12:28:48.939Z,41440
2017-06-10T12:29:49.284Z,52608
2017-06-10T12:30:49.147Z,68032
2017-06-10T12:31:48.720Z,73696
2017-06-10T12:32:48.807Z,60512
2017-06-10T12:33:49.102Z,50336
2017-06-10T12:34:48.832Z,50144
2017-06-10T12:35:49.421Z,60032
2017-06-10T12:36:49.504Z,71264
2017-06-10T12:37:49.234Z,80096
2017-06-10T12:38:49.578Z,86080
2017-06-10T12:39:48.982Z,86368
2017-06-10T12:40:49.495Z,86336
2017-06-10T12:41:49.684Z,84320
2017-06-10T12:42:49.718Z,78880
2017-06-10T12:43:49.446Z,76928
2017-06-10T12:44:49.783Z,79328
2017-06-10T12:45:49.763Z,80928
2017-06-10T12:46:49.857Z,82496
2017-06-10T12:47:49.576Z,78784
2017-06-10T12:48:49.020Z,76384
2017-06-10T12:49:49.651Z,77664
2017-06-10T12:50:50.194Z,79136
2017-06-10T12:51:50.025Z,76160
2017-06-10T12:52:50.066Z,74912
2017-06-10T12:53:50.084Z,76128
2017-06-10T12:54:50.135Z,81760
2017-06-10T12:55:50.308Z,84032
2017-06-10T12:56:50.197Z,85888
2017-06-10T12:57:49.639Z,85664
2017-06-10T12:58:50.270Z,49152
2017-06-10T12:59:50.028Z,79392
2017-06-10T13:00:50.613Z,81600
2017-06-10T13:01:50.388Z,79456
2017-06-10T13:02:50.406Z,80480
2017-06-10T13:03:50.441Z,84416
2017-06-10T13:04:50.171Z,82112
2017-06-10T13:05:50.352Z,76896
2017-06-10T13:06:50.545Z,70144
2017-06-10T13:07:50.583Z,73440
2017-06-10T13:08:50.299Z,80032
2017-06-10T13:09:50.345Z,79680
2017-06-10T13:10:50.520Z,80416
2017-06-10T13:11:50.716Z,81088
2017-06-10T13:12:50.760Z,79328
2017-06-10T13:13:50.786Z,77344
2017-06-10T13:14:50.819Z,74976
2017-06-10T13:15:50.708Z,75264
2017-06-10T13:16:50.582Z,75168
2017-06-10T13:17:50.611Z,72864
2017-06-10T13:18:50.347Z,72544
2017-06-10T13:19:50.674Z,73056
2017-06-10T13:20:50.867Z,74848
2017-06-10T13:21:51.051Z,76640
2017-06-10T13:22:51.102Z,76416
2017-06-10T13:23:51.139Z,74080
2017-06-10T13:24:51.167Z,75648
2017-06-10T13:25:51.396Z,78976
2017-06-10T13:26:50.920Z,77760
2017-06-10T13:27:51.270Z,76480
2017-06-10T13:28:50.678Z,78304
2017-06-10T13:29:51.352Z,78944
2017-06-10T13:30:51.014Z,79744
2017-06-10T13:31:51.092Z,81216
2017-06-10T13:32:51.445Z,77664
2017-06-10T13:33:51.470Z,72992
2017-06-10T13:34:51.207Z,75200
2017-06-10T13:35:51.380Z,78368
2017-06-10T13:36:51.572Z,80960
2017-06-10T13:37:51.293Z,76672
2017-06-10T13:38:50.710Z,73088
2017-06-10T13:39:51.367Z,74720
2017-06-10T13:40:51.557Z,78624
2017-06-10T13:41:51.429Z,80320
2017-06-10T13:42:51.783Z,80576
2017-06-10T13:43:51.494Z,78912
2017-06-10T13:44:51.538Z,77472
2017-06-10T13:45:51.724Z,76512